| Date | Time | Temp. (oF) | Dew Point (oF) | Rel. Hum. (%) | Press. (in.) | Wind Dir. | Wind Speed (mph) | Hourly Rainfall (in.) |
|
|---|---|---|---|---|---|---|---|---|---|
| 1 | 05/13 | 00:00 | 65 | 44 | 47 | 29.96 | W | 16 | 0.00 |
| 2 | 05/12 | 23:00 | 69 | 41 | 37 | 29.93 | SSW | 3 | 0.00 |
| 3 | 05/12 | 22:00 | 72 | 44 | 37 | 29.90 | N | 6 | 0.00 |
| 4 | 05/12 | 21:00 | 75 | 44 | 34 | 29.87 | W | 9 | 0.00 |
| 5 | 05/12 | 20:00 | 78 | 47 | 35 | 29.82 | W | 4 | 0.00 |
| 6 | 05/12 | 19:00 | 81 | 48 | 33 | 29.79 | SW | 10 | 0.00 |
| 7 | 05/12 | 18:00 | 82 | 48 | 32 | 29.79 | SSE | 8 | 0.00 |
| 8 | 05/12 | 17:00 | 84 | 49 | 31 | 29.78 | WSW | 6 | 0.00 |
| 9 | 05/12 | 16:00 | 83 | 52 | 35 | 29.81 | S | 7 | 0.00 |
| 10 | 05/12 | 15:00 | 83 | 53 | 37 | 29.83 | SW | 13 | 0.00 |
| 11 | 05/12 | 14:00 | 81 | 59 | 48 | 29.85 | N | 7 | 0.00 |
| 12 | 05/12 | 13:00 | 81 | 61 | 52 | 29.87 | SSW | 7 | 0.00 |
| 13 | 05/12 | 12:00 | 78 | 60 | 56 | 29.89 | W | 5 | 0.00 |
| 14 | 05/12 | 11:00 | 76 | 62 | 63 | 29.90 | SSW | 5 | 0.00 |
| 15 | 05/12 | 10:00 | 76 | 64 | 67 | 29.90 | SSW | 4 | 0.00 |
| 16 | 05/12 | 09:00 | 75 | 68 | 80 | 29.91 | SSW | 2 | 0.00 |
| 17 | 05/12 | 08:00 | 68 | 64 | 90 | 29.92 | S | 5 | 0.00 |
| 18 | miss | miss | miss | miss | miss | miss | miss | miss | |
| 19 | 05/12 | 06:00 | 64 | 61 | 90 | 29.90 | SSW | 3 | 0.00 |
| 20 | 05/12 | 05:00 | 64 | 61 | 92 | 29.88 | S | 0 | 0.00 |
| 21 | 05/12 | 04:00 | 64 | 61 | 92 | 29.88 | SE | 0 | 0.00 |
| 22 | 05/12 | 03:00 | 65 | 62 | 92 | 29.91 | ENE | 0 | 0.00 |
| 23 | 05/12 | 02:00 | 65 | 62 | 93 | 29.91 | ENE | 0 | 0.00 |
| 24 | 05/12 | 01:00 | 66 | 63 | 93 | 29.92 | SSE | 0 | 0.00 |